Time;durP1;ratioP1;P1;durP2;ratioP2;P2;SDS_P1;SDS_P2;PMS_P1;PMS_P2;Temp;Humidity;BMP_temperature;BMP_pressure;BME280_temperature;BME280_humidity;BME280_pressure;Samples;Min_cycle;Max_cycle;Signal;HPM_P1;HPM_P2
2020/12/17 00:01:24;;;;;;;;;;;;;;;22.02;42.82;100669.63;3134522;27;114025;-59
2020/12/17 00:02:56;;;;;;;;;;;;;;;22.02;43.21;100663.16;3130907;27;114369;-59
2020/12/17 00:04:27;;;;;;;;;;;;;;;22.01;43.22;100661.50;3120654;27;114038;-59
2020/12/17 00:05:58;;;;;;;;;;;;;;;22.01;42.75;100667.13;3120694;27;113786;-59
2020/12/17 00:07:29;;;;;;;;;;;;;;;22.00;43.18;100666.31;3129740;27;113700;-59
2020/12/17 00:09:00;;;;;;;;;;;;;;;22.00;42.78;100668.28;3118901;27;114266;-59
2020/12/17 00:10:31;;;;;;;;;;;;;;;21.98;43.15;100671.44;3129960;27;114373;-58
2020/12/17 00:12:02;;;;;;;;;;;;;;;21.97;43.39;100663.31;3133965;27;114330;-58
2020/12/17 00:13:34;;;;;;;;;;;;;;;21.97;43.14;100671.75;3132745;27;114649;-58
2020/12/17 00:15:06;;;;;;;;;;;;;;;21.96;43.22;100668.09;3120882;27;113744;-58
2020/12/17 00:16:37;;;;;;;;;;;;;;;21.96;43.02;100664.47;3127059;27;114231;-58
2020/12/17 00:18:08;;;;;;;;;;;;;;;21.94;43.36;100659.16;3133308;27;114426;-58
2020/12/17 00:19:39;;;;;;;;;;;;;;;21.93;43.12;100654.72;3132884;27;114624;-58
2020/12/17 00:21:10;;;;;;;;;;;;;;;21.92;42.78;100658.63;3134203;27;113733;-58
2020/12/17 00:22:41;;;;;;;;;;;;;;;21.92;43.38;100663.44;3138439;27;113805;-58
2020/12/17 00:24:12;;;;;;;;;;;;;;;21.90;43.10;100668.53;3118452;27;117943;-58
2020/12/17 00:25:43;;;;;;;;;;;;;;;21.89;43.40;100669.72;3130169;27;114820;-58
2020/12/17 00:27:14;;;;;;;;;;;;;;;21.89;43.62;100669.72;3133773;27;115517;-58
2020/12/17 00:28:46;;;;;;;;;;;;;;;21.88;43.45;100662.41;3134497;27;115015;-58
2020/12/17 00:30:17;;;;;;;;;;;;;;;21.86;43.66;100668.34;3121319;27;114799;-58
2020/12/17 00:31:52;;;;;;;;;;;;;;;21.86;43.81;100662.72;3119368;27;115252;-58
2020/12/17 00:33:23;;;;;;;;;;;;;;;21.85;43.76;100666.69;3130301;27;114667;-58
2020/12/17 00:34:54;;;;;;;;;;;;;;;21.83;43.66;100671.84;3133284;27;114768;-58
2020/12/17 00:36:25;;;;;;;;;;;;;;;21.84;43.94;100669.84;3135013;27;115213;-58
2020/12/17 00:37:56;;;;;;;;;;;;;;;21.81;44.15;100676.94;3120544;27;114576;-58
2020/12/17 00:39:28;;;;;;;;;;;;;;;21.81;44.41;100670.47;3128462;27;115768;-58
2020/12/17 00:40:59;;;;;;;;;;;;;;;21.78;44.36;100668.31;3131950;27;115010;-58
2020/12/17 00:42:30;;;;;;;;;;;;;;;21.80;44.45;100680.09;3133166;27;114581;-58
2020/12/17 00:44:01;;;;;;;;;;;;;;;21.77;44.65;100675.09;3131444;27;115511;-57
2020/12/17 00:45:32;;;;;;;;;;;;;;;21.77;44.79;100681.56;3134405;27;114670;-57
2020/12/17 00:47:03;;;;;;;;;;;;;;;21.76;44.68;100685.50;3133314;27;115914;-57
2020/12/17 00:48:34;;;;;;;;;;;;;;;21.74;44.55;100685.84;3130755;27;117717;-58
2020/12/17 00:50:06;;;;;;;;;;;;;;;21.73;44.54;100687.00;3134336;27;115853;-57
2020/12/17 00:51:37;;;;;;;;;;;;;;;21.71;44.62;100696.94;3133994;27;115581;-57
2020/12/17 00:53:09;;;;;;;;;;;;;;;21.71;44.33;100685.69;3133143;27;115154;-58
2020/12/17 00:54:40;;;;;;;;;;;;;;;21.70;44.65;100684.00;3117998;27;115886;-59
2020/12/17 00:56:12;;;;;;;;;;;;;;;21.69;44.43;100694.44;3127807;27;115861;-59
2020/12/17 00:57:43;;;;;;;;;;;;;;;21.67;44.66;100696.72;3133856;27;115873;-59
2020/12/17 00:59:14;;;;;;;;;;;;;;;21.65;44.58;100693.41;3120291;27;115741;-59
2020/12/17 01:00:45;;;;;;;;;;;;;;;21.65;44.47;100695.38;3120626;27;115754;-59
2020/12/17 01:02:16;;;;;;;;;;;;;;;21.63;44.43;100687.28;3119766;27;114936;-59
2020/12/17 01:03:47;;;;;;;;;;;;;;;21.62;44.72;100690.44;3129326;27;116437;-59
2020/12/17 01:05:18;;;;;;;;;;;;;;;21.60;44.66;100692.72;3125444;27;115102;-59
2020/12/17 01:06:49;;;;;;;;;;;;;;;21.58;44.67;100687.41;3134139;27;113982;-59
2020/12/17 01:08:20;;;;;;;;;;;;;;;21.59;44.64;100688.22;3133714;27;113911;-59
2020/12/17 01:09:51;;;;;;;;;;;;;;;21.55;44.49;100690.88;3125303;27;114392;-59
2020/12/17 01:11:29;;;;;;;;;;;;;;;21.53;44.97;100690.34;3130771;27;114988;-59
2020/12/17 01:13:00;;;;;;;;;;;;;;;21.53;44.73;100689.53;3133326;27;113844;-59
2020/12/17 01:14:32;;;;;;;;;;;;;;;21.53;44.84;100686.72;3133520;27;114115;-59
2020/12/17 01:16:03;;;;;;;;;;;;;;;21.50;44.98;100687.34;3134401;27;114231;-59
2020/12/17 01:17:34;;;;;;;;;;;;;;;21.48;44.63;100684.88;3131107;27;114050;-59
2020/12/17 01:19:05;;;;;;;;;;;;;;;21.49;44.58;100692.16;3126013;27;114179;-59
2020/12/17 01:20:36;;;;;;;;;;;;;;;21.48;44.86;100698.94;3122062;27;114201;-59
2020/12/17 01:22:08;;;;;;;;;;;;;;;21.47;44.96;100694.47;3132996;27;114588;-59
2020/12/17 01:23:39;;;;;;;;;;;;;;;21.46;45.03;100698.41;3132171;27;114662;-60
2020/12/17 01:25:11;;;;;;;;;;;;;;;21.44;45.01;100697.88;3120412;27;113918;-59
2020/12/17 01:26:42;;;;;;;;;;;;;;;21.44;45.05;100706.31;3132405;27;114622;-59
2020/12/17 01:28:13;;;;;;;;;;;;;;;21.42;45.12;100705.00;3117827;27;115381;-59
2020/12/17 01:29:44;;;;;;;;;;;;;;;21.42;45.07;100719.06;3129673;27;115071;-59
2020/12/17 01:31:15;;;;;;;;;;;;;;;21.41;44.82;100706.97;3133700;27;114608;-59
2020/12/17 01:32:46;;;;;;;;;;;;;;;21.39;44.89;100714.91;3132502;27;114962;-59
2020/12/17 01:34:17;;;;;;;;;;;;;;;21.39;45.24;100716.88;3133068;27;113781;-60
2020/12/17 01:35:48;;;;;;;;;;;;;;;21.36;45.15;100715.53;3134083;27;117412;-59
2020/12/17 01:37:20;;;;;;;;;;;;;;;21.37;44.93;100724.81;3133290;27;114852;-59
2020/12/17 01:38:51;;;;;;;;;;;;;;;21.35;45.09;100722.28;3131944;27;114258;-59
2020/12/17 01:40:23;;;;;;;;;;;;;;;21.32;45.31;100722.94;3134289;27;115145;-59
2020/12/17 01:41:54;;;;;;;;;;;;;;;21.29;45.36;100724.44;3133197;27;114301;-60
2020/12/17 01:43:25;;;;;;;;;;;;;;;21.30;45.10;100728.06;3133631;27;114625;-59
2020/12/17 01:44:56;;;;;;;;;;;;;;;21.29;45.44;100727.25;3133440;27;114796;-59
2020/12/17 01:46:28;;;;;;;;;;;;;;;21.28;45.54;100727.53;3133001;27;113815;-59
2020/12/17 01:47:59;;;;;;;;;;;;;;;21.26;45.57;100730.66;3137500;27;114761;-60
2020/12/17 01:49:30;;;;;;;;;;;;;;;21.26;45.45;100719.44;3119692;27;115749;-60
2020/12/17 01:51:02;;;;;;;;;;;;;;;21.26;45.46;100727.03;3127889;27;115905;-60
2020/12/17 01:52:33;;;;;;;;;;;;;;;21.26;45.46;100736.28;3133575;27;115899;-60
2020/12/17 01:54:05;;;;;;;;;;;;;;;21.23;45.75;100736.09;3131817;27;115944;-60
2020/12/17 01:55:36;;;;;;;;;;;;;;;21.21;45.85;100730.78;3132076;27;116354;-60
2020/12/17 01:57:09;;;;;;;;;;;;;;;21.21;45.65;100733.59;3136018;27;116671;-60
2020/12/17 01:58:42;;;;;;;;;;;;;;;21.20;45.69;100742.38;3135765;27;115907;-60
2020/12/17 02:00:14;;;;;;;;;;;;;;;21.18;45.97;100739.88;3124677;27;115870;-60
2020/12/17 02:01:46;;;;;;;;;;;;;;;21.17;45.97;100743.81;3121296;27;116327;-60
2020/12/17 02:03:17;;;;;;;;;;;;;;;21.17;45.61;100748.59;3131472;27;115763;-60
2020/12/17 02:04:48;;;;;;;;;;;;;;;21.14;45.80;100752.06;3135239;27;114929;-60
2020/12/17 02:06:20;;;;;;;;;;;;;;;21.14;45.74;100754.88;3135272;27;115233;-60
2020/12/17 02:07:51;;;;;;;;;;;;;;;21.11;45.75;100761.09;3134894;27;114454;-60
2020/12/17 02:09:22;;;;;;;;;;;;;;;21.10;45.69;100756.63;3134645;27;114652;-60
2020/12/17 02:10:53;;;;;;;;;;;;;;;21.08;46.03;100756.94;3139916;27;115753;-60
2020/12/17 02:12:40;;;;;;;;;;;;;;;21.07;45.82;100760.06;3135573;27;114108;-60
2020/12/17 02:14:11;;;;;;;;;;;;;;;21.07;45.59;100758.09;3134420;27;113962;-60
2020/12/17 02:15:42;;;;;;;;;;;;;;;21.04;45.70;100746.63;3135806;27;113783;-58
2020/12/17 02:17:13;;;;;;;;;;;;;;;21.01;46.04;100756.53;3135292;27;114195;-58
2020/12/17 02:18:44;;;;;;;;;;;;;;;21.02;45.73;100763.84;3135684;27;114237;-58
2020/12/17 02:20:16;;;;;;;;;;;;;;;21.01;45.93;100758.53;3129499;27;118442;-58
2020/12/17 02:21:47;;;;;;;;;;;;;;;20.99;45.97;100758.81;3135206;27;113874;-59
2020/12/17 02:23:19;;;;;;;;;;;;;;;20.99;45.94;100760.81;3134392;27;113844;-58
2020/12/17 02:24:50;;;;;;;;;;;;;;;20.97;45.75;100760.31;3132624;27;114597;-58
2020/12/17 02:26:21;;;;;;;;;;;;;;;20.97;45.66;100755.53;3121802;27;114334;-58
2020/12/17 02:27:52;;;;;;;;;;;;;;;20.95;46.01;100766.22;3131592;27;113926;-59
2020/12/17 02:29:23;;;;;;;;;;;;;;;20.93;46.10;100759.28;3134427;27;114427;-58
2020/12/17 02:30:54;;;;;;;;;;;;;;;20.95;45.96;100768.19;3126666;27;114041;-59
2020/12/17 02:32:25;;;;;;;;;;;;;;;20.94;45.86;100767.38;3137428;27;114266;-59
2020/12/17 02:33:56;;;;;;;;;;;;;;;20.92;45.88;100766.88;3135157;27;115124;-59
2020/12/17 02:35:27;;;;;;;;;;;;;;;20.90;45.90;100771.94;3121749;27;115248;-59
2020/12/17 02:37:00;;;;;;;;;;;;;;;20.90;45.58;100762.69;3130386;27;114473;-59
2020/12/17 02:38:31;;;;;;;;;;;;;;;20.89;45.69;100773.13;3118565;27;115192;-59
2020/12/17 02:40:03;;;;;;;;;;;;;;;20.89;45.50;100778.75;3117604;27;115130;-59
2020/12/17 02:41:34;;;;;;;;;;;;;;;20.87;45.62;100775.41;3131453;27;115464;-59
2020/12/17 02:43:08;;;;;;;;;;;;;;;20.86;45.91;100779.34;3135949;27;115972;-58
2020/12/17 02:44:39;;;;;;;;;;;;;;;20.85;45.67;100783.28;3132414;27;114132;-58
2020/12/17 02:46:10;;;;;;;;;;;;;;;20.83;46.09;100778.00;3135652;27;114411;-58
2020/12/17 02:47:41;;;;;;;;;;;;;;;20.82;45.98;100783.94;3134020;27;115148;-58
2020/12/17 02:49:12;;;;;;;;;;;;;;;20.82;46.20;100784.78;3133771;27;115781;-58
2020/12/17 02:50:44;;;;;;;;;;;;;;;20.81;45.73;100787.88;3131340;27;115356;-58
2020/12/17 02:52:15;;;;;;;;;;;;;;;20.80;45.67;100784.25;3135440;27;115672;-58
2020/12/17 02:53:46;;;;;;;;;;;;;;;20.77;45.84;100784.88;3123734;27;115254;-58
2020/12/17 02:55:18;;;;;;;;;;;;;;;20.77;45.94;100786.84;3130823;27;114602;-58
2020/12/17 02:56:49;;;;;;;;;;;;;;;20.75;45.63;100787.19;3135141;27;116590;-58
2020/12/17 02:58:21;;;;;;;;;;;;;;;20.73;45.78;100786.66;3135833;27;115479;-58
2020/12/17 02:59:52;;;;;;;;;;;;;;;20.74;45.82;100787.50;3134585;27;115786;-58
2020/12/17 03:01:23;;;;;;;;;;;;;;;20.73;45.73;100789.47;3131556;27;115531;-58
2020/12/17 03:02:54;;;;;;;;;;;;;;;20.72;45.66;100796.22;3125721;27;116396;-58
2020/12/17 03:04:25;;;;;;;;;;;;;;;20.71;45.95;100788.13;3134937;27;116707;-58
2020/12/17 03:05:56;;;;;;;;;;;;;;;20.69;45.95;100788.44;3134444;27;115413;-58
2020/12/17 03:07:27;;;;;;;;;;;;;;;20.67;45.84;100799.13;3134498;27;115971;-58
2020/12/17 03:08:58;;;;;;;;;;;;;;;20.68;45.91;100792.38;3129086;27;115792;-58
2020/12/17 03:10:29;;;;;;;;;;;;;;;20.65;45.61;100787.41;3135890;27;115938;-58
2020/12/17 03:12:00;;;;;;;;;;;;;;;20.66;45.94;100793.84;3134367;27;114751;-58
2020/12/17 03:13:31;;;;;;;;;;;;;;;20.65;45.96;100784.59;3134550;27;115820;-58
2020/12/17 03:15:03;;;;;;;;;;;;;;;20.63;46.15;100789.66;3138231;27;114348;-58
2020/12/17 03:16:34;;;;;;;;;;;;;;;20.63;46.18;100794.44;3133674;27;113920;-58
2020/12/17 03:18:05;;;;;;;;;;;;;;;20.62;46.07;100799.25;3134886;27;113888;-58
2020/12/17 03:19:36;;;;;;;;;;;;;;;20.60;46.34;100800.69;3134221;27;114045;-58
2020/12/17 03:21:07;;;;;;;;;;;;;;;20.60;46.35;100795.09;3135182;27;114043;-58
2020/12/17 03:22:38;;;;;;;;;;;;;;;20.58;46.41;100798.19;3134750;27;113875;-58
2020/12/17 03:24:09;;;;;;;;;;;;;;;20.57;46.26;100806.94;3134235;27;114218;-58
2020/12/17 03:25:41;;;;;;;;;;;;;;;20.58;46.52;100805.81;3135704;27;113907;-58
2020/12/17 03:27:12;;;;;;;;;;;;;;;20.57;46.42;100810.59;3132532;27;114529;-58
2020/12/17 03:28:43;;;;;;;;;;;;;;;20.55;46.47;100812.03;3127272;27;114417;-58
2020/12/17 03:30:14;;;;;;;;;;;;;;;20.53;46.72;100817.97;3127881;27;113856;-58
2020/12/17 03:31:45;;;;;;;;;;;;;;;20.52;46.67;100813.50;3133927;27;114231;-58
2020/12/17 03:33:16;;;;;;;;;;;;;;;20.52;46.49;100821.91;3132917;27;114163;-58
2020/12/17 03:34:47;;;;;;;;;;;;;;;20.51;46.64;100823.06;3122597;27;114032;-58
2020/12/17 03:36:18;;;;;;;;;;;;;;;20.50;46.91;100823.34;3121334;27;113920;-58
2020/12/17 03:37:49;;;;;;;;;;;;;;;20.49;46.47;100832.94;3134222;27;114694;-58
2020/12/17 03:39:21;;;;;;;;;;;;;;;20.48;46.48;100834.91;3120139;27;115869;-58
2020/12/17 03:40:52;;;;;;;;;;;;;;;20.47;46.36;100829.59;3131081;27;115181;-58
2020/12/17 03:42:23;;;;;;;;;;;;;;;20.46;46.64;100834.38;3132763;27;114185;-58
2020/12/17 03:43:54;;;;;;;;;;;;;;;20.46;46.74;100841.97;3133951;27;116825;-58
2020/12/17 03:45:25;;;;;;;;;;;;;;;20.45;46.71;100848.72;3135647;27;115190;-58
2020/12/17 03:46:56;;;;;;;;;;;;;;;20.45;46.71;100841.13;3134423;27;115143;-58
2020/12/17 03:48:27;;;;;;;;;;;;;;;20.43;46.55;100851.84;3129822;27;116273;-58
2020/12/17 03:49:58;;;;;;;;;;;;;;;20.44;46.36;100853.53;3135784;27;115221;-58
2020/12/17 03:51:30;;;;;;;;;;;;;;;20.41;46.68;100851.31;3133897;27;114367;-58
2020/12/17 03:53:02;;;;;;;;;;;;;;;20.39;46.45;100865.69;3133275;27;114246;-58
2020/12/17 03:54:33;;;;;;;;;;;;;;;20.42;46.54;100867.03;3133684;27;114873;-58
2020/12/17 03:56:04;;;;;;;;;;;;;;;20.41;46.60;100869.00;3135311;27;115035;-58
2020/12/17 03:57:35;;;;;;;;;;;;;;;20.38;46.73;100861.19;3133667;27;115124;-58
2020/12/17 03:59:06;;;;;;;;;;;;;;;20.37;46.82;100862.34;3137175;27;114098;-58
2020/12/17 04:00:38;;;;;;;;;;;;;;;20.37;46.45;100858.69;3135159;27;115710;-59
2020/12/17 04:02:09;;;;;;;;;;;;;;;20.35;46.63;100859.00;3128957;27;115033;-60
2020/12/17 04:03:40;;;;;;;;;;;;;;;20.36;46.73;100862.63;3135017;27;114422;-60
2020/12/17 04:05:11;;;;;;;;;;;;;;;20.34;46.41;100862.13;3134518;27;114684;-59
2020/12/17 04:06:42;;;;;;;;;;;;;;;20.34;46.69;100862.97;3134407;27;115775;-60
2020/12/17 04:08:13;;;;;;;;;;;;;;;20.34;46.47;100864.94;3134072;27;116248;-60
2020/12/17 04:09:44;;;;;;;;;;;;;;;20.34;46.50;100859.31;3120171;27;116265;-60
2020/12/17 04:11:15;;;;;;;;;;;;;;;20.32;46.70;100862.44;3117035;27;114969;-60
2020/12/17 04:12:46;;;;;;;;;;;;;;;20.32;46.47;100855.97;3129514;27;114600;-60
2020/12/17 04:14:18;;;;;;;;;;;;;;;20.30;46.63;100859.13;3134136;27;116270;-60
2020/12/17 04:15:49;;;;;;;;;;;;;;;20.31;46.79;100857.13;3134744;27;115734;-59
2020/12/17 04:17:20;;;;;;;;;;;;;;;20.30;46.63;100861.09;3134232;27;115188;-59
2020/12/17 04:18:51;;;;;;;;;;;;;;;20.30;46.72;100861.09;3125286;27;115944;-59
2020/12/17 04:20:22;;;;;;;;;;;;;;;20.29;46.60;100859.38;3136724;27;114786;-59
2020/12/17 04:21:54;;;;;;;;;;;;;;;20.27;46.74;100864.44;3134180;27;114340;-59
2020/12/17 04:23:25;;;;;;;;;;;;;;;20.26;46.55;100851.59;3120338;27;114226;-59
2020/12/17 04:24:56;;;;;;;;;;;;;;;20.25;46.55;100861.16;3129719;27;114731;-59
2020/12/17 04:26:27;;;;;;;;;;;;;;;20.25;46.72;100858.34;3120824;27;115407;-59
2020/12/17 04:27:58;;;;;;;;;;;;;;;20.26;46.27;100860.00;3129873;27;114049;-60
2020/12/17 04:29:29;;;;;;;;;;;;;;;20.25;46.51;100861.16;3133555;27;114235;-60
2020/12/17 04:31:00;;;;;;;;;;;;;;;20.23;46.41;100861.44;3137687;27;114063;-59
2020/12/17 04:32:31;;;;;;;;;;;;;;;20.22;46.58;100859.78;3130813;27;114108;-60
2020/12/17 04:34:02;;;;;;;;;;;;;;;20.21;46.52;100865.72;3134094;27;114661;-60
2020/12/17 04:35:33;;;;;;;;;;;;;;;20.21;46.65;100874.97;3120771;27;113986;-60
2020/12/17 04:37:04;;;;;;;;;;;;;;;20.20;46.26;100869.66;3130002;27;114093;-59
2020/12/17 04:38:35;;;;;;;;;;;;;;;20.19;46.35;100870.78;3129871;27;114249;-59
2020/12/17 04:40:06;;;;;;;;;;;;;;;20.18;46.61;100869.94;3128036;27;114064;-59
2020/12/17 04:41:42;;;;;;;;;;;;;;;20.17;46.66;100865.47;3134183;27;114213;-60
2020/12/17 04:43:13;;;;;;;;;;;;;;;20.17;46.54;100864.66;3128217;27;114553;-60
2020/12/17 04:44:44;;;;;;;;;;;;;;;20.16;46.41;100863.00;3133788;27;114077;-60
2020/12/17 04:46:17;;;;;;;;;;;;;;;20.17;46.53;100870.28;3134524;27;114160;-60
2020/12/17 04:47:48;;;;;;;;;;;;;;;20.15;46.48;100867.78;3133442;27;114716;-59
2020/12/17 04:49:22;;;;;;;;;;;;;;;20.15;46.34;100869.75;3119956;27;114292;-60
2020/12/17 04:50:54;;;;;;;;;;;;;;;20.14;46.38;100871.72;3128881;27;114398;-60
2020/12/17 04:52:26;;;;;;;;;;;;;;;20.14;46.49;100871.72;3133472;27;114282;-60
2020/12/17 04:54:00;;;;;;;;;;;;;;;20.11;46.35;100877.94;3132214;27;114192;-60
2020/12/17 04:55:31;;;;;;;;;;;;;;;20.11;46.76;100883.56;3134628;27;115505;-60
2020/12/17 04:57:07;;;;;;;;;;;;;;;20.11;46.40;100877.94;3129819;27;115344;-60
2020/12/17 04:58:43;;;;;;;;;;;;;;;20.10;46.33;100879.06;3119617;27;115581;-58
2020/12/17 05:00:14;;;;;;;;;;;;;;;20.08;46.39;100878.53;3121476;27;115258;-58
2020/12/17 05:01:49;;;;;;;;;;;;;;;20.09;46.38;100884.97;3126983;27;114815;-60
2020/12/17 05:03:22;;;;;;;;;;;;;;;20.06;46.45;100886.44;3138575;27;115334;-58
2020/12/17 05:04:53;;;;;;;;;;;;;;;20.06;46.46;100882.81;3134541;27;115822;-58
2020/12/17 05:06:25;;;;;;;;;;;;;;;20.05;46.62;100883.94;3133928;27;115419;-58
2020/12/17 05:07:57;;;;;;;;;;;;;;;20.04;46.28;100876.66;3119668;27;114916;-58
2020/12/17 05:09:28;;;;;;;;;;;;;;;20.03;46.53;100884.25;3128951;27;116263;-58
2020/12/17 05:10:59;;;;;;;;;;;;;;;20.03;46.46;100886.22;3134061;27;114803;-57
2020/12/17 05:12:30;;;;;;;;;;;;;;;20.02;46.44;100887.38;3119614;27;117360;-57
2020/12/17 05:14:01;;;;;;;;;;;;;;;20.01;46.70;100888.50;3129288;27;116217;-57
2020/12/17 05:15:32;;;;;;;;;;;;;;;20.01;46.53;100894.94;3134380;27;114787;-58
2020/12/17 05:17:04;;;;;;;;;;;;;;;19.98;46.69;100896.41;3133381;27;115974;-57
2020/12/17 05:18:35;;;;;;;;;;;;;;;19.98;46.46;100890.78;3132840;27;115793;-57
2020/12/17 05:20:06;;;;;;;;;;;;;;;19.99;46.40;100900.00;3133517;27;115499;-58
2020/12/17 05:21:41;;;;;;;;;;;;;;;19.99;46.37;100898.03;3133596;27;115146;-58
2020/12/17 05:23:13;;;;;;;;;;;;;;;19.98;46.46;100902.00;3133881;27;114676;-57
2020/12/17 05:24:45;;;;;;;;;;;;;;;19.98;46.46;100906.78;3133313;27;114632;-61
2020/12/17 05:26:23;;;;;;;;;;;;;;;19.98;46.29;100906.78;3124172;27;115894;-60
2020/12/17 05:27:54;;;;;;;;;;;;;;;19.96;46.33;100907.06;3128257;27;114006;-59
2020/12/17 05:29:26;;;;;;;;;;;;;;;19.97;46.47;100919.13;3128300;27;114481;-59
2020/12/17 05:30:57;;;;;;;;;;;;;;;19.94;46.31;100914.13;3135901;27;114017;-59
2020/12/17 05:32:28;;;;;;;;;;;;;;;19.94;46.35;100922.56;3109586;27;114213;-59
2020/12/17 05:34:01;;;;;;;;;;;;;;;19.92;46.28;100920.03;3130178;27;114311;-59
2020/12/17 05:35:36;;;;;;;;;;;;;;;19.92;46.71;100933.22;3126040;27;114007;-59
2020/12/17 05:37:08;;;;;;;;;;;;;;;19.92;46.30;100939.66;3132015;27;114134;-59
2020/12/17 05:38:39;;;;;;;;;;;;;;;19.91;46.50;100938.00;3134109;27;114339;-59
2020/12/17 05:40:11;;;;;;;;;;;;;;;19.90;46.49;100941.09;3123375;27;114188;-59
2020/12/17 05:41:44;;;;;;;;;;;;;;;19.90;46.67;100938.28;3113691;27;114133;-59
2020/12/17 05:43:19;;;;;;;;;;;;;;;19.88;46.63;100949.00;3109337;27;113967;-58
2020/12/17 05:44:50;;;;;;;;;;;;;;;19.89;46.45;100943.09;3118323;27;114171;-58
2020/12/17 05:46:34;;;;;;;;;;;;;;;19.88;46.56;100949.84;3132009;27;113927;-58
2020/12/17 05:48:24;;;;;;;;;;;;;;;19.86;46.54;100943.69;3139322;27;114021;-58
2020/12/17 05:49:55;;;;;;;;;;;;;;;19.88;46.53;100947.03;3136038;27;115653;-59
2020/12/17 05:51:26;;;;;;;;;;;;;;;19.88;46.83;100957.41;3136001;27;115830;-59
2020/12/17 05:52:58;;;;;;;;;;;;;;;19.93;46.62;100955.38;3136074;27;115173;-59
2020/12/17 05:54:29;;;;;;;;;;;;;;;19.95;46.88;100953.06;3133774;27;115219;-59
2020/12/17 05:56:05;;;;;;;;;;;;;;;19.99;46.96;100968.16;3122763;27;115371;-59
2020/12/17 05:57:50;;;;;;;;;;;;;;;20.03;46.58;100964.75;3131258;27;114113;-58
2020/12/17 05:59:22;;;;;;;;;;;;;;;20.06;46.71;100967.78;3135190;27;114183;-58
2020/12/17 06:01:06;;;;;;;;;;;;;;;20.09;46.86;100964.34;3136235;27;115474;-58
2020/12/17 06:02:37;;;;;;;;;;;;;;;20.13;46.97;100965.41;3135045;27;115214;-59
2020/12/17 06:04:15;;;;;;;;;;;;;;;20.18;46.70;100970.09;3121700;27;115313;-62
2020/12/17 06:05:47;;;;;;;;;;;;;;;20.22;46.86;100962.75;3133176;27;115757;-59
2020/12/17 06:07:28;;;;;;;;;;;;;;;20.25;47.10;100959.34;3135599;27;115282;-59
2020/12/17 06:09:22;;;;;;;;;;;;;;;20.31;46.86;100969.34;3134878;27;115461;-59
2020/12/17 06:10:55;;;;;;;;;;;;;;;20.33;46.88;100967.09;3139755;27;114626;-59
2020/12/17 06:12:26;;;;;;;;;;;;;;;20.38;47.28;100969.81;3135970;27;114306;-59
2020/12/17 06:13:57;;;;;;;;;;;;;;;20.41;47.13;100969.19;3134701;27;114684;-59
2020/12/17 06:15:29;;;;;;;;;;;;;;;20.46;47.11;100969.09;3136149;27;115752;-60
2020/12/17 06:17:05;;;;;;;;;;;;;;;20.49;46.84;100968.47;3135021;27;114813;-60
2020/12/17 06:18:38;;;;;;;;;;;;;;;20.53;46.75;100975.16;3128719;27;115176;-59
2020/12/17 06:20:09;;;;;;;;;;;;;;;20.57;46.61;100976.22;3132300;27;114820;-60
2020/12/17 06:21:41;;;;;;;;;;;;;;;20.61;46.49;100980.06;3135472;27;116343;-59
2020/12/17 06:23:15;;;;;;;;;;;;;;;20.64;46.58;100979.44;3120713;27;115715;-60
2020/12/17 06:24:46;;;;;;;;;;;;;;;20.67;46.24;100983.63;3130710;27;114682;-60
2020/12/17 06:26:18;;;;;;;;;;;;;;;20.70;46.35;100991.41;3135642;27;116769;-59
2020/12/17 06:27:50;;;;;;;;;;;;;;;20.74;46.30;100984.03;3135509;27;116521;-59
2020/12/17 06:29:22;;;;;;;;;;;;;;;20.77;46.62;100986.22;3135058;27;114700;-59
2020/12/17 06:30:55;;;;;;;;;;;;;;;20.79;46.29;100986.75;3136604;27;116035;-59
2020/12/17 06:32:27;;;;;;;;;;;;;;;20.83;46.06;100993.41;3137825;27;115957;-59
2020/12/17 06:34:05;;;;;;;;;;;;;;;20.86;46.08;100987.16;3133478;27;113736;-59
2020/12/17 06:35:39;;;;;;;;;;;;;;;20.89;45.85;100988.53;3134905;27;114289;-59
2020/12/17 06:37:14;;;;;;;;;;;;;;;20.91;46.67;100989.03;3135751;27;114444;-59
2020/12/17 06:38:46;;;;;;;;;;;;;;;20.96;46.54;100995.41;3134012;27;113987;-60
2020/12/17 06:40:27;;;;;;;;;;;;;;;20.98;46.36;100997.91;3135588;27;114392;-60
2020/12/17 06:41:58;;;;;;;;;;;;;;;21.01;46.51;100998.13;3134983;27;114206;-60
2020/12/17 06:43:33;;;;;;;;;;;;;;;21.04;45.96;100989.06;3135349;27;113900;-60
2020/12/17 06:45:23;;;;;;;;;;;;;;;21.07;45.93;101004.47;3135677;27;114405;-60
2020/12/17 06:46:54;;;;;;;;;;;;;;;21.11;45.60;101003.53;3134726;27;114417;-60
2020/12/17 06:48:33;;;;;;;;;;;;;;;21.13;45.45;101012.50;3134162;27;114611;-60
2020/12/17 06:50:39;;;;;;;;;;;;;;;21.15;45.46;101003.78;3136099;27;113709;-60
2020/12/17 06:52:11;;;;;;;;;;;;;;;21.20;45.58;101014.94;3091702;28;114432;-60
2020/12/17 06:53:42;;;;;;;;;;;;;;;21.22;45.53;101013.47;3091742;27;114285;-59
2020/12/17 06:55:50;;;;;;;;;;;;;;;21.25;45.33;101017.63;3129023;27;114395;-59
2020/12/17 06:57:23;;;;;;;;;;;;;;;21.29;44.99;101018.69;3115402;27;117821;-60
2020/12/17 06:59:12;;;;;;;;;;;;;;;21.32;45.20;101014.41;3114322;27;114518;-59
2020/12/17 07:00:43;;;;;;;;;;;;;;;21.35;45.11;101011.78;3121630;27;115255;-59
2020/12/17 07:02:18;;;;;;;;;;;;;;;21.37;45.06;101019.91;3130185;27;115324;-59
2020/12/17 07:03:50;;;;;;;;;;;;;;;21.39;44.93;101021.28;3134480;27;115220;-59
2020/12/17 07:05:35;;;;;;;;;;;;;;;21.41;44.89;101030.22;3131028;27;117365;-59
2020/12/17 07:07:09;;;;;;;;;;;;;;;21.45;44.96;101024.81;3134984;27;114592;-59
2020/12/17 07:08:41;;;;;;;;;;;;;;;21.46;44.81;101023.66;3133623;27;115689;-59
2020/12/17 07:10:25;;;;;;;;;;;;;;;21.49;45.13;101032.28;3135881;27;115182;-59
2020/12/17 07:11:56;;;;;;;;;;;;;;;21.52;44.74;101036.47;3135119;27;115256;-59
2020/12/17 07:13:40;;;;;;;;;;;;;;;21.53;44.63;101041.75;3135975;27;115759;-59
2020/12/17 07:15:31;;;;;;;;;;;;;;;21.56;44.89;101038.34;3126913;27;114123;-59
2020/12/17 07:17:05;;;;;;;;;;;;;;;21.59;44.76;101046.16;3120395;27;114642;-59
2020/12/17 07:18:36;;;;;;;;;;;;;;;21.60;44.55;101039.38;3134670;27;115115;-60
2020/12/17 07:20:07;;;;;;;;;;;;;;;21.62;44.74;101039.88;3140171;27;115077;-59
2020/12/17 07:21:40;;;;;;;;;;;;;;;21.65;44.54;101053.34;3133490;27;114608;-60
2020/12/17 07:23:13;;;;;;;;;;;;;;;21.67;44.74;101055.81;3128235;27;115451;-59
2020/12/17 07:24:52;;;;;;;;;;;;;;;21.69;44.44;101059.16;3127625;27;114666;-60
2020/12/17 07:26:23;;;;;;;;;;;;;;;21.71;44.69;101054.88;3135211;27;116121;-59
2020/12/17 07:27:57;;;;;;;;;;;;;;;21.72;44.64;101059.38;3135473;27;115552;-59
2020/12/17 07:29:33;;;;;;;;;;;;;;;21.74;44.48;101059.91;3135022;27;115770;-60
2020/12/17 07:31:04;;;;;;;;;;;;;;;21.77;44.68;101068.84;3135480;27;114651;-60
2020/12/17 07:32:36;;;;;;;;;;;;;;;21.79;44.64;101070.19;3134509;27;114876;-59
2020/12/17 07:34:15;;;;;;;;;;;;;;;21.80;44.23;101069.06;3135007;27;115972;-60
2020/12/17 07:35:46;;;;;;;;;;;;;;;21.82;44.56;101063.09;3110121;27;114430;-59
2020/12/17 07:37:34;;;;;;;;;;;;;;;21.83;44.62;101067.59;3127906;27;116138;-60
2020/12/17 07:39:09;;;;;;;;;;;;;;;21.86;44.15;101070.59;3133556;27;115864;-60
2020/12/17 07:40:41;;;;;;;;;;;;;;;21.87;44.36;101079.88;3121858;27;115788;-59
2020/12/17 07:42:12;;;;;;;;;;;;;;;21.90;44.25;101084.84;3132693;27;114540;-60
2020/12/17 07:43:43;;;;;;;;;;;;;;;21.90;44.29;101084.84;3134366;27;114328;-60
2020/12/17 07:45:15;;;;;;;;;;;;;;;21.93;44.29;101084.28;3135269;27;114231;-60
2020/12/17 07:46:46;;;;;;;;;;;;;;;21.93;44.30;101073.03;3120612;27;114069;-60
2020/12/17 07:48:33;;;;;;;;;;;;;;;21.95;43.95;101082.81;3130494;27;114587;-60
2020/12/17 07:50:04;;;;;;;;;;;;;;;21.98;43.97;101089.81;3134952;27;114330;-59
2020/12/17 07:51:35;;;;;;;;;;;;;;;21.99;44.33;101089.47;3134282;27;114777;-59